Smith Hunter — WDC7849 — position and weather

sailwx.info

Track history (hours):
 
Tides and Currents Weather Stations Pressure Air Temp Water Temp Dewpoint Dewpoint Depression Visibility Wind Speed Wind Dir Waves Ship Positions

Smith Hunter

Owner: Smith Marine Towing, Morgan City, LA. More information available from US FCC via Universal Licensing System and Coast Guard Vessel Documentation Center.

Last reported at 2017-Sep-22 02:01 UTC. Time now 2017-Oct-20 03:20 UTC.
Position N 30°00' W 093°14'.
Warning: this ship's position is 28 days out of date.

Length 28 m; draft 3 m.

Type: Other ship. MMSI: 367077850.

Date/timePositionNaut miles runAvg speedWind from/ knotsBaromVisibWave heightAir tempDewpointWater temp
2017-Sep-22 02:01N 30°00' W 093°14'3 6.4
2017-Sep-22 01:30N 30°03' W 093°16'3 5.9
2017-Sep-22 01:01N 30°05' W 093°18'2 4.1
2017-Sep-22 00:31N 30°05' W 093°20'3 6.3
2017-Sep-22 00:01N 30°04' W 093°23'4 8.4
2017-Sep-21 23:31N 30°04' W 093°28'4 8.1
2017-Sep-21 23:00N 30°04' W 093°33'4 8.5
2017-Sep-21 22:30N 30°04' W 093°38'2 0.2
2017-Sep-21 07:47N 30°04' W 093°40'1 3.5
2017-Sep-21 07:30N 30°04' W 093°39'2 3.7
2017-Sep-21 07:01N 30°04' W 093°37'2 3.2
2017-Sep-21 06:29N 30°04' W 093°35'1 2.8
2017-Sep-21 06:00N 30°04' W 093°34'1 3.0
2017-Sep-21 05:30N 30°04' W 093°32'1 2.9
2017-Sep-21 05:00N 30°04' W 093°30'1 2.9
2017-Sep-21 04:31N 30°04' W 093°29'1 2.6
2017-Sep-21 04:01N 30°04' W 093°27'2 2.9
2017-Sep-21 03:30N 30°04' W 093°25'1 2.8
2017-Sep-21 03:01N 30°04' W 093°24'2 3.2
2017-Sep-21 02:31N 30°04' W 093°22'2 3.1
2017-Sep-21 02:00N 30°04' W 093°20'1 1.9
2017-Sep-21 01:31N 30°05' W 093°20'2 3.8
2017-Sep-21 01:00N 30°03' W 093°20'2 4.3
2017-Sep-21 00:30N 30°01' W 093°20'2 4.2
2017-Sep-21 00:01N 29°59' W 093°20'2 4.2
2017-Sep-20 23:30N 29°57' W 093°20'2 4.4
2017-Sep-20 23:01N 29°54' W 093°20'3 4.4
2017-Sep-20 22:21N 29°52' W 093°21'2 5.5
2017-Sep-20 21:57N 29°49' W 093°21'3 0.1
2017-Sep-19 00:17N 29°46' W 093°21'0 0.0
2017-Sep-18 23:03N 29°46' W 093°21'0 0.1
2017-Sep-18 22:58N 29°46' W 093°21'1 0.1
2017-Sep-18 12:21N 29°47' W 093°20'1 0.0
2017-Sep-17 14:13N 29°46' W 093°21'0 0.1
2017-Sep-17 14:00N 29°46' W 093°21'1 0.0
2017-Sep-16 01:56N 29°47' W 093°20'0 0.0
2017-Sep-16 00:53N 29°47' W 093°20'5 0.4
2017-Sep-15 14:38N 29°43' W 093°22'0 0.1
2017-Sep-15 14:28N 29°43' W 093°22'0 0.2
2017-Sep-15 13:55N 29°43' W 093°22'0 0.1
2017-Sep-15 13:27N 29°43' W 093°22'4 1.7
2017-Sep-15 11:10N 29°46' W 093°21'1 3.7
2017-Sep-15 10:58N 29°47' W 093°20'0 0.0
2017-Sep-14 13:53N 29°47' W 093°20'0 0.6
2017-Sep-14 13:28N 29°47' W 093°20'1 0.2
2017-Sep-14 10:26N 29°46' W 093°21'0 0.0
2017-Sep-14 09:48N 29°46' W 093°21'0 0.0
2017-Sep-14 03:24N 29°46' W 093°21'1 0.0
2017-Sep-13 11:38N 29°46' W 093°21'1 0.0
2017-Sep-12 06:35N 29°46' W 093°21'0 0.0
2017-Sep-12 06:29N 29°46' W 093°21'0 0.0
2017-Sep-12 05:59N 29°46' W 093°21'0 0.0
2017-Sep-12 05:20N 29°46' W 093°21'0 0.0
2017-Sep-12 02:20N 29°46' W 093°21'  
Track history (hours):
 
Tides and Currents Weather Stations Pressure Air Temp Water Temp Dewpoint Dewpoint Depression Visibility Wind Speed Wind Dir Waves Ship Positions

Smith Hunter

Owner: Smith Marine Towing, Morgan City, LA. More information available from US FCC via Universal Licensing System and Coast Guard Vessel Documentation Center.

Last reported at 2017-Sep-22 02:01 UTC. Time now 2017-Oct-20 03:20 UTC.
Position N 30°00' W 093°14'.
Warning: this ship's position is 28 days out of date.

Length 28 m; draft 3 m.

Type: Other ship. MMSI: 367077850.

Date/timePositionNaut miles runAvg speedWind from/ knotsBaromVisibWave heightAir tempDewpointWater temp
2017-Sep-22 02:01N 30°00' W 093°14'3 6.4
2017-Sep-22 01:30N 30°03' W 093°16'3 5.9
2017-Sep-22 01:01N 30°05' W 093°18'2 4.1
2017-Sep-22 00:31N 30°05' W 093°20'3 6.3
2017-Sep-22 00:01N 30°04' W 093°23'4 8.4
2017-Sep-21 23:31N 30°04' W 093°28'4 8.1
2017-Sep-21 23:00N 30°04' W 093°33'4 8.5
2017-Sep-21 22:30N 30°04' W 093°38'2 0.2
2017-Sep-21 07:47N 30°04' W 093°40'1 3.5
2017-Sep-21 07:30N 30°04' W 093°39'2 3.7
2017-Sep-21 07:01N 30°04' W 093°37'2 3.2
2017-Sep-21 06:29N 30°04' W 093°35'1 2.8
2017-Sep-21 06:00N 30°04' W 093°34'1 3.0
2017-Sep-21 05:30N 30°04' W 093°32'1 2.9
2017-Sep-21 05:00N 30°04' W 093°30'1 2.9
2017-Sep-21 04:31N 30°04' W 093°29'1 2.6
2017-Sep-21 04:01N 30°04' W 093°27'2 2.9
2017-Sep-21 03:30N 30°04' W 093°25'1 2.8
2017-Sep-21 03:01N 30°04' W 093°24'2 3.2
2017-Sep-21 02:31N 30°04' W 093°22'2 3.1
2017-Sep-21 02:00N 30°04' W 093°20'1 1.9
2017-Sep-21 01:31N 30°05' W 093°20'2 3.8
2017-Sep-21 01:00N 30°03' W 093°20'2 4.3
2017-Sep-21 00:30N 30°01' W 093°20'2 4.2
2017-Sep-21 00:01N 29°59' W 093°20'2 4.2
2017-Sep-20 23:30N 29°57' W 093°20'2 4.4
2017-Sep-20 23:01N 29°54' W 093°20'3 4.4
2017-Sep-20 22:21N 29°52' W 093°21'2 5.5
2017-Sep-20 21:57N 29°49' W 093°21'3 0.1
2017-Sep-19 00:17N 29°46' W 093°21'0 0.0
2017-Sep-18 23:03N 29°46' W 093°21'0 0.1
2017-Sep-18 22:58N 29°46' W 093°21'1 0.1
2017-Sep-18 12:21N 29°47' W 093°20'1 0.0
2017-Sep-17 14:13N 29°46' W 093°21'0 0.1
2017-Sep-17 14:00N 29°46' W 093°21'1 0.0
2017-Sep-16 01:56N 29°47' W 093°20'0 0.0
2017-Sep-16 00:53N 29°47' W 093°20'5 0.4
2017-Sep-15 14:38N 29°43' W 093°22'0 0.1
2017-Sep-15 14:28N 29°43' W 093°22'0 0.2
2017-Sep-15 13:55N 29°43' W 093°22'0 0.1
2017-Sep-15 13:27N 29°43' W 093°22'4 1.7
2017-Sep-15 11:10N 29°46' W 093°21'1 3.7
2017-Sep-15 10:58N 29°47' W 093°20'0 0.0
2017-Sep-14 13:53N 29°47' W 093°20'0 0.6
2017-Sep-14 13:28N 29°47' W 093°20'1 0.2
2017-Sep-14 10:26N 29°46' W 093°21'0 0.0
2017-Sep-14 09:48N 29°46' W 093°21'0 0.0
2017-Sep-14 03:24N 29°46' W 093°21'1 0.0
2017-Sep-13 11:38N 29°46' W 093°21'1 0.0
2017-Sep-12 06:35N 29°46' W 093°21'0 0.0
2017-Sep-12 06:29N 29°46' W 093°21'0 0.0
2017-Sep-12 05:59N 29°46' W 093°21'0 0.0
2017-Sep-12 05:20N 29°46' W 093°21'0 0.0
2017-Sep-12 02:20N 29°46' W 093°21'  

Dump ship's entire track history